Main page
METAR-TAF:

METAR-TAF

Airports :

Schwäbisch Hall, Germany

latitude: 49-07-06N, longitude: 9-47-02E, elevation: 398 m

Current weather observation

The report was made 2 hours and 58 minutes ago, at 17:50 UTC
Wind 4 kt from the West
Temperature 22°C
Humidity 53%
Pressure 1018 hPa
Visibility 10 km or more
no clouds below 1500 m and no cumulonimbus

METAR: EDTY 231750Z 27004KT CAVOK 22/12 Q1018

Time: 22:48 (20:48 UTC)

Forecast

The report was made 3 hours and 48 minutes ago, at 17:00 UTC
Forecast valid from 23 at 18 UTC to 24 at 03 UTC
Wind 6 kt from the West
Visibility 10 km or more
no clouds below 1500 m and no cumulonimbus

TAF: EDTY 231700Z 2318/2403 27006KT CAVOK

Weather observations and forecasts of more than 4000 airports (METAR and TAF reports).

The available stations are represented by yellow and red dots on the map.

Hover mouse over dot to see the name of the station.

Then click to see weather observations and forecasts.

To change the map : click on the green buttons with a black cross to zoom in, on the green button with a dash to zoom out, or on the green arrows for adjacent maps.


METAR-TAF: